Norfolk, VA (23541)

12:34 AM EST on November 24, 2014 (GMT -0500)
Moores Bridges WTP | Change Station
CLOSE
Current Station
Personal Weather Station
Location: Norfolk, VA
Elevation: 9 ft
Nearby Weather Stations

Elev 9 ft 36.87 °N, 76.20 °W | Updated 6 minutes ago

Rain
Rain
65.3 °F
Feels Like 65.3 °F
N
8.0
Wind Variable Wind from SSE
Gusts 12.0 mph

Today
High -- | Low -- °F
--% Chance of Precip.
Yesterday
High -- | Low -- °F
Precip. -- in
6:52 AM 4:50 PM
Waxing Crescent, 4% visible
Pressure 29.82 in
Visibility 10.0 miles
Clouds Scattered Clouds 1000 ft
Mostly Cloudy 1400 ft
Overcast 3100 ft
Dew Point 60 °F
Humidity 84%
Rainfall 0.00 in
Snow Depth Not available.
UV 0 out of 12
Pollen .10 out of 12
Air Quality Not available.
Flu Activity Not available.
SPECI KORF 240528Z AUTO 16013G26KT 10SM -RA SCT010 BKN014 OVC031 18/17 A2982 RMK AO2 PK WND 15026/0520 P0002 T01830167 TSNO

More Conditions Fewer Conditions

Pressure 29.82 in
Visibility 10.0 miles
Clouds Scattered Clouds 1000 ft
Mostly Cloudy 1400 ft
Overcast 3100 ft
Dew Point 60 °F
Humidity 84%
Rainfall 0.00 in
Snow Depth Not available.
UV 0 out of 12
Pollen .10 out of 12
Air Quality Not available.
Flu Activity Not available.
SPECI KORF 240528Z AUTO 16013G26KT 10SM -RA SCT010 BKN014 OVC031 18/17 A2982 RMK AO2 PK WND 15026/0520 P0002 T01830167 TSNO

More Conditions Fewer Conditions

10-Day Weather Forecast

Almanac

Astronomy

Nov. 24, 2014 Rise Set
Actual Time
Civil Twilight
Nautical Twilight
Astronomical Twilight
Moon
Length of Visible Light
Length of Day
Tomorrow will be .
, % of the Moon is Illuminated

Today's Extremes

State Highs State Lows

Community

WunderPhotos

Upload Photos

1,773,279 photos uploaded!

WunderBlogs® & News

Nearby

Air Quality

  Air Quality AQ Index Pollutant
Not available.

Snow Depth

Station Depth Elevation

Earthquake Activity

City Distance Mag. Time & Date
Minimum magnitude displayed is 2.5.

Coastal Water Temperatures

Place Temperature

Nearby Weather Stations